Historyczne dane pomiarowe

Dodano dane terminowe – wersja testowa.

Dane z okresu 1951-2019

Wersja bazy: 1.34 [2019-03-16, lista zmian], aktualizacja planowana na 2019-04-15

Dane meteo z obszaru Polski uzyskane na podstawie danych udostępnionych przez Instytut Meteorologii i Gospodarki Wodnej – Państwowy Instytut Badawczy.

 

Wybierz Datę:    

       

TemperaturaWilgotnośćWiatrCiśnienieOpadyŚniegCzas trwania zjawisk
 Stacja t tx tn tng RH VA  wxwx mslp ppp RRR   cm mm wxwxwxwxwxwxwx
1986-12-13 1.6 4.7 -2.0- 95.3- 6.0 1.7---- 0.0------------
1986-12-14 -2.8 -1.8 -3.0- 84.3- 8.0 1.7---- 0.6------------
1986-12-15 -0.7 0.0 -3.0- 92.5- 6.7 2.0---- 0.0------------
1986-12-16 -0.2 1.8 -1.9- 91.8- 8.0 3.3---- 2.6------------
1986-12-17 1.9 2.9 0.0- 90.8- 8.0 3.3---- 0.0------------
1986-12-18 1.8 2.9 1.0- 94.0- 7.3 1.0---- 0.0------------
1986-12-19 1.1 2.2 0.0- 93.3- 7.3 3.0---- 1.0------------
1986-12-20 -0.4 0.2 -1.2- 90.5- 6.7 2.7---- 9.6------------
1986-12-21 -5.4 -1.0 -7.0- 87.0- 6.0 5.0---- 2.4-- 10---------
1986-12-22 -3.9 -2.5 -8.0- 93.8- 8.0 2.0---- 4.2-- 16---------
1986-12-23 -2.8 -1.0 -5.0- 88.5- 7.3 3.0---- 0.0-- 25---------
1986-12-24 -8.6 -5.0-10.0- 87.0- 6.7 2.7---- 0.0-- 22---------
1986-12-25 -7.6 -4.8-10.0- 89.3- 6.7 4.7---- 2.9-- 19---------
1986-12-26 -8.1 -6.6-10.8- 87.5- 7.0 4.0---- 0.0-- 24---------
1986-12-27 -7.0 -1.3-11.5- 91.0- 7.7 2.0---- 2.9-- 23---------
1986-12-28 -3.5 -1.4 -5.0- 94.8- 8.0 4.0---- 0.2-- 30---------
1986-12-29 -3.2 3.0-14.0- 92.5- 7.3 3.0---- 0.0-- 25---------
1986-12-30 -1.5 3.0 -3.0- 92.8- 8.0 8.0---- 2.9-- 18---------
1986-12-31 -4.0 -3.0 -5.0- 93.0- 7.7 3.3---- 0.0-- 25---------
1987-01-01 -5.4 -3.0 -3.0- 99.0- 5.7 2.0---- 2.2-- 22---------
1987-01-02-18.4-10.5-22.0- 90.5- 6.3 2.3---- 0.0-- 29---------
1987-01-03-11.5 -5.0-21.0- 94.3- 8.0 2.3---- 4.9-- 26---------
1987-01-04 -9.4 -6.3-12.0- 91.8- 5.3 1.0---- 0.0-- 37---------
1987-01-05 -9.8 -8.8-12.9- 97.3- 8.0 3.3---- 5.2-- 36---------
1987-01-06-10.9 -8.0-16.1- 92.5- 8.0 2.7---- 1.1-- 45---------
1987-01-07-25.3-16.1-31.0- 86.0- 4.0 2.7---- 0.0-- 45---------
1987-01-08-22.0-17.0-33.0- 88.8- 7.0 2.3---- 0.2-- 43---------
1987-01-09-14.7-10.8-19.0- 93.0- 8.0 2.7---- 0.0-- 40---------
1987-01-10-24.3-18.8-27.7- 88.0- 3.0 3.0---- 0.0-- 37---------
1987-01-11-24.3-23.0-26.0- 88.0- 6.0 3.7---- 0.3-- 34---------
439.4 ms

 

Źródłem pochodzenia danych jest Instytut Meteorologii i Gospodarki Wodnej – Państwowy Instytut Badawczy. Dane Instytutu Meteorologii i Gospodarki Wodnej – Państwowego Instytutu Badawczego zostały przetworzone.

Dane źródłowe można odnaleźć na stronie https://dane.imgw.pl